Anna, Texas
Current Conditions -  °F | °C
As of 11:53 PM on Sunday 28 Dec 2014 (Local Time) from KTKI Reporting Station
Clear Clear  
Wind Chill: 29°   Ceiling: Unl
Heat Index: 29°   Visibility: 10mi
Dew Point: 24°   Wind: 0mph
Humidity: 82%   Direction: NA
Pressure: 30.15"   Gusts: NA
Location:  33.35°N, 96.55°W
Report Text: KTKI 290553Z AUTO 00000KT 10SM CLR M02/M04 A3015 RMK AO2 SLP227 T10171044 10061 21017 400891017 50005
Loading
Personal Weather Stations






























Interactive Weather Map New forecast layout! Learn more

10-Day Weather Forecast

Advertisements
Track Severe Weather on mobile